No requiere especial atencion con respecto al clima.   -   No hay Alarmas

Nearby METAR Reports

 

LELL - Sabadell, Spain
Distance from station: E 19km
Actualización: 28/02/2021 07:30
Mist, Parcialmente nuboso
Mist, Parcialmente nuboso
 Viento del ONO
Viento: ONO 6 km/h
Temperatura: 9°C
Rocío: 8°C
Humedad: 94%
Barómetro: 1024 hPa
Resumen: Mist
Clouds: Parcialmente nuboso
Visibility: 5 km
2021/02/28 06:30 LELL 280630Z AUTO 29003KT 5000 BR NSC 09/08 Q1024
LEBL - Barcelona Airpor, Spain
Distance from station: SSE 30km
Actualización: 28/02/2021 07:30
Despejado
Despejado
 Viento del NO
Viento: NO 11 km/h
Temperatura: 10°C
Wind Chill: 8°C
Rocío: 8°C
Humedad: 88%
Barómetro: 1024 hPa
Resumen: Despejado
Visibility: greater than 10 km
2021/02/28 06:30 LEBL 280630Z 32006KT CAVOK 10/08 Q1024 NOSIG
 
LERS - Reus (civ/Mil), Spain
Distance from station: SO 71km
Actualización: 28/02/2021 07:30
Parcialmente nuboso
Parcialmente nuboso
 Viento del NNE
Viento: NNE 6 km/h
Temperatura: 10°C
Rocío: 9°C
Humedad: 94%
Barómetro: 1024 hPa
Clouds: Parcialmente nuboso
Visibility: 10 km
Cloud details: Few Clouds 305 m
Parcialmente nuboso 1219 m
2021/02/28 06:30 LERS 280630Z 02003KT 9999 FEW010 SCT040 10/09 Q1024
LEGE - Gerona/Costa Bra, Spain
Distance from station: ENE 86km
Actualización: 28/02/2021 07:30
Despejado
Despejado
 Viento del ONO
Viento: ONO 6 km/h
Temperatura: 5°C
Rocío: 5°C
Humedad: 100%
Barómetro: 1025 hPa
Resumen: Despejado
Visibility: greater than 10 km
2021/02/28 06:30 LEGE 280630Z 29003KT CAVOK 05/05 Q1025
 
LESU - Pirineus/La Seu, Spain
Distance from station: NNO 101km
Actualización: 27/02/2021 17:00
NOT Current
Despejado
Despejado
 Viento del OSO
Viento: OSO 15 km/h
Temperatura: 14°C
Rocío: 3°C
Humedad: 48%
Barómetro: 1021 hPa
Resumen: Despejado
Visibility: greater than 10 km
2021/02/27 16:00 LESU 271600Z 24008KT 190V340 CAVOK 14/03 Q1021
LEDA - Lleida/Alguaire, Spain
Distance from station: ONO 114km
Actualización: 28/02/2021 07:30
Parcialmente nuboso
Parcialmente nuboso
 Viento del E
Viento: E 9 km/h
Temperatura: 8°C
Wind Chill: 6°C
Rocío: 8°C
Humedad: 100%
Barómetro: 1023 hPa
Clouds: Parcialmente nuboso
Visibility: 9 km
2021/02/28 06:30 LEDA 280630Z AUTO 09005KT 9000 NSC 08/08 Q1023